Time;durP1;ratioP1;P1;durP2;ratioP2;P2;SDS_P1;SDS_P2;PMS_P1;PMS_P2;Temp;Humidity;BMP_temperature;BMP_pressure;BME280_temperature;BME280_humidity;BME280_pressure;Samples;Min_cycle;Max_cycle;Signal;HPM_P1;HPM_P2
2024/01/25 00:00:49;;;;;;;30.50;4.38;;;9.50;99.90;;;;;;5094519;28;20067;-65
2024/01/25 00:03:14;;;;;;;24.23;3.92;;;9.40;99.90;;;;;;5094337;28;20064;-65
2024/01/25 00:05:40;;;;;;;19.40;3.53;;;9.40;99.90;;;;;;5094418;28;20025;-64
2024/01/25 00:08:06;;;;;;;24.60;3.25;;;9.40;99.90;;;;;;5094098;28;20024;-64
2024/01/25 00:10:31;;;;;;;20.50;3.38;;;9.40;99.90;;;;;;5093084;28;20052;-64
2024/01/25 00:12:57;;;;;;;19.45;3.10;;;9.40;99.90;;;;;;5094318;28;20052;-65
2024/01/25 00:15:23;;;;;;;20.60;3.95;;;9.40;99.90;;;;;;5094120;28;20055;-65
2024/01/25 00:17:48;;;;;;;21.38;4.25;;;9.30;99.90;;;;;;5094157;28;20048;-65
2024/01/25 00:20:14;;;;;;;18.33;3.25;;;9.30;99.90;;;;;;5094052;28;20058;-64
2024/01/25 00:22:39;;;;;;;21.88;3.60;;;9.20;99.90;;;;;;5094006;28;20032;-65
2024/01/25 00:25:06;;;;;;;21.15;3.65;;;9.20;99.90;;;;;;5093940;28;20089;-65
2024/01/25 00:27:31;;;;;;;22.75;3.63;;;9.20;99.90;;;;;;5094087;28;20025;-65
2024/01/25 00:29:57;;;;;;;18.55;3.90;;;9.10;99.90;;;;;;5094066;28;20039;-66
2024/01/25 00:32:23;;;;;;;15.63;3.42;;;9.00;99.90;;;;;;5093916;28;20059;-65
2024/01/25 00:34:49;;;;;;;18.85;3.65;;;9.00;99.90;;;;;;5093654;28;20032;-65
2024/01/25 00:37:15;;;;;;;23.52;3.38;;;9.00;99.90;;;;;;5093574;28;20086;-65
2024/01/25 00:39:41;;;;;;;24.00;3.55;;;8.90;99.90;;;;;;5093673;28;20029;-65
2024/01/25 00:42:07;;;;;;;22.65;3.90;;;8.90;99.90;;;;;;5093645;28;20031;-64
2024/01/25 00:44:33;;;;;;;20.45;3.63;;;8.90;99.90;;;;;;5093695;28;20092;-64
2024/01/25 00:46:59;;;;;;;19.52;3.65;;;8.90;99.90;;;;;;5093696;28;20036;-65
2024/01/25 00:49:25;;;;;;;27.13;3.88;;;8.90;99.90;;;;;;5093511;28;20028;-65
2024/01/25 00:51:58;;;;;;;21.23;3.40;;;8.80;99.90;;;;;;5093520;28;20040;-65
2024/01/25 00:54:24;;;;;;;17.33;3.97;;;8.80;99.90;;;;;;5092374;28;20048;-64
2024/01/25 00:56:52;;;;;;;24.27;3.78;;;8.70;99.90;;;;;;5093279;28;20031;-64
2024/01/25 00:59:18;;;;;;;26.45;3.70;;;8.70;99.90;;;;;;5093381;28;20020;-66
2024/01/25 01:01:47;;;;;;;23.08;3.65;;;8.70;99.90;;;;;;5093257;28;20034;-64
2024/01/25 01:04:13;;;;;;;18.02;2.72;;;8.60;99.90;;;;;;5092955;28;20024;-64
2024/01/25 01:06:39;;;;;;;29.10;4.97;;;8.60;99.90;;;;;;5093103;28;20074;-64
2024/01/25 01:09:04;;;;;;;18.88;2.83;;;8.60;99.90;;;;;;5092752;28;20049;-65
2024/01/25 01:11:30;;;;;;;17.95;3.22;;;8.50;99.90;;;;;;5093092;28;20040;-65
2024/01/25 01:13:56;;;;;;;17.77;2.90;;;8.50;99.90;;;;;;5093170;28;20051;-65
2024/01/25 01:16:21;;;;;;;18.85;2.50;;;8.50;99.90;;;;;;5092875;28;20045;-65
2024/01/25 01:18:47;;;;;;;20.17;3.20;;;8.50;99.90;;;;;;5093077;28;20020;-64
2024/01/25 01:21:13;;;;;;;18.85;3.75;;;8.50;99.90;;;;;;5092575;28;20438;-65
2024/01/25 01:23:38;;;;;;;11.98;3.22;;;8.50;99.90;;;;;;5092950;28;20048;-65
2024/01/25 01:26:05;;;;;;;13.35;3.47;;;8.50;99.90;;;;;;5092824;28;20032;-66
2024/01/25 01:28:31;;;;;;;28.83;3.08;;;8.50;99.90;;;;;;5092786;28;20032;-65
2024/01/25 01:30:56;;;;;;;26.77;3.67;;;8.50;99.90;;;;;;5092754;28;20024;-65
2024/01/25 01:33:22;;;;;;;19.88;3.10;;;8.50;99.90;;;;;;5092521;28;20032;-65
2024/01/25 01:35:47;;;;;;;21.35;3.10;;;8.50;99.90;;;;;;5091671;28;20020;-65
2024/01/25 01:38:13;;;;;;;22.33;3.60;;;8.40;99.90;;;;;;5092573;28;20037;-65
2024/01/25 01:40:39;;;;;;;19.88;3.03;;;8.40;99.90;;;;;;5092677;28;20077;-65
2024/01/25 01:43:04;;;;;;;20.83;3.55;;;8.40;99.90;;;;;;5092562;28;20036;-65
2024/01/25 01:45:30;;;;;;;20.77;3.33;;;8.30;99.90;;;;;;5092590;28;20084;-65
2024/01/25 01:47:56;;;;;;;21.35;2.95;;;8.30;99.90;;;;;;5092545;28;20036;-64
2024/01/25 01:50:22;;;;;;;18.10;3.20;;;8.30;99.90;;;;;;5092390;28;20080;-65
2024/01/25 01:52:50;;;;;;;19.95;4.60;;;8.30;99.90;;;;;;5092487;28;20033;-64
2024/01/25 01:55:17;;;;;;;23.20;3.72;;;8.30;99.90;;;;;;5081944;28;20025;-64
2024/01/25 01:57:43;;;;;;;16.77;2.92;;;8.30;99.90;;;;;;5052169;28;20493;-64
2024/01/25 02:00:09;;;;;;;20.70;3.42;;;8.20;99.90;;;;;;5052368;28;20040;-64
2024/01/25 02:02:35;;;;;;;22.52;3.33;;;8.20;99.90;;;;;;5052143;28;20022;-64
2024/01/25 02:05:01;;;;;;;13.10;2.60;;;8.20;99.90;;;;;;5051828;28;20036;-65
2024/01/25 02:07:28;;;;;;;20.80;2.70;;;8.20;99.90;;;;;;5052097;28;20033;-65
2024/01/25 02:09:53;;;;;;;16.65;2.85;;;8.10;99.90;;;;;;5051793;28;20052;-65
2024/01/25 02:12:19;;;;;;;20.70;3.08;;;8.10;99.90;;;;;;5051882;28;20033;-64
2024/01/25 02:14:45;;;;;;;19.05;3.60;;;8.10;99.90;;;;;;5052023;28;20025;-64
2024/01/25 02:17:11;;;;;;;22.48;3.70;;;8.10;99.90;;;;;;5050857;28;20041;-65
2024/01/25 02:19:36;;;;;;;14.38;2.75;;;8.10;99.90;;;;;;5052002;28;20051;-65
2024/01/25 02:22:04;;;;;;;18.88;3.90;;;8.00;99.90;;;;;;5051910;28;20052;-65
2024/01/25 02:24:30;;;;;;;12.18;2.42;;;8.00;99.90;;;;;;5050974;28;20041;-65
2024/01/25 02:26:55;;;;;;;26.77;4.57;;;8.10;99.90;;;;;;5051466;28;20036;-65
2024/01/25 02:29:21;;;;;;;28.02;3.70;;;8.00;99.90;;;;;;5051990;28;20044;-65
2024/01/25 02:31:47;;;;;;;19.35;3.10;;;8.00;99.90;;;;;;5052041;28;20053;-64
2024/01/25 02:34:12;;;;;;;23.15;4.88;;;7.90;99.90;;;;;;5055575;28;20040;-65
2024/01/25 02:36:38;;;;;;;15.40;3.03;;;7.90;99.90;;;;;;5055979;28;20479;-64
2024/01/25 02:39:07;;;;;;;23.50;3.30;;;7.90;99.90;;;;;;5055917;28;20021;-64
2024/01/25 02:41:32;;;;;;;22.42;3.67;;;7.90;99.90;;;;;;5055898;28;20025;-65
2024/01/25 02:43:59;;;;;;;25.73;3.53;;;7.80;99.90;;;;;;5055913;28;20081;-65
2024/01/25 02:46:25;;;;;;;22.65;3.80;;;7.80;99.90;;;;;;5055806;28;20026;-65
2024/01/25 02:48:50;;;;;;;25.60;3.92;;;7.80;99.90;;;;;;5055707;28;20030;-65
2024/01/25 02:51:16;;;;;;;16.55;2.92;;;7.70;99.90;;;;;;5055727;28;20033;-65
2024/01/25 02:53:42;;;;;;;23.42;3.30;;;7.70;99.90;;;;;;5055774;28;20084;-65
2024/01/25 02:56:07;;;;;;;25.27;4.38;;;7.70;99.90;;;;;;5055523;28;20104;-65
2024/01/25 02:58:33;;;;;;;22.67;3.42;;;7.70;99.90;;;;;;5055616;28;20052;-65
2024/01/25 03:00:59;;;;;;;24.75;3.65;;;7.70;99.90;;;;;;5055571;28;20037;-65
2024/01/25 03:03:24;;;;;;;18.60;2.78;;;7.70;99.90;;;;;;5055289;28;20032;-64
2024/01/25 03:05:53;;;;;;;19.77;3.28;;;7.70;99.90;;;;;;5055473;28;20029;-64
2024/01/25 03:08:18;;;;;;;19.73;3.13;;;7.70;99.90;;;;;;5055347;28;20034;-65
2024/01/25 03:10:44;;;;;;;18.63;2.85;;;7.60;99.90;;;;;;5054332;28;20072;-65
2024/01/25 03:13:09;;;;;;;25.45;3.88;;;7.60;99.90;;;;;;5055325;28;20037;-65
2024/01/25 03:15:35;;;;;;;23.88;4.20;;;7.60;99.90;;;;;;5055194;28;20045;-64
2024/01/25 03:18:01;;;;;;;28.35;3.72;;;7.60;99.90;;;;;;5055125;28;20022;-64
2024/01/25 03:20:26;;;;;;;24.75;3.33;;;7.60;99.90;;;;;;5055027;28;20032;-64
2024/01/25 03:22:52;;;;;;;37.40;4.22;;;7.60;99.90;;;;;;5055135;28;20032;-65
2024/01/25 03:25:17;;;;;;;17.90;3.38;;;7.50;99.90;;;;;;5055125;28;20026;-64
2024/01/25 03:27:43;;;;;;;19.17;3.47;;;7.50;99.90;;;;;;5055204;28;20093;-65
2024/01/25 03:30:09;;;;;;;25.58;3.78;;;7.50;99.90;;;;;;5055038;28;20051;-64
2024/01/25 03:32:35;;;;;;;15.40;3.00;;;7.40;99.90;;;;;;5054800;28;20052;-65
2024/01/25 03:35:01;;;;;;;25.80;3.80;;;7.40;99.90;;;;;;5053604;28;20033;-65
2024/01/25 03:37:27;;;;;;;17.77;3.75;;;7.40;99.90;;;;;;5054738;28;20048;-64
2024/01/25 03:39:52;;;;;;;20.60;3.22;;;7.40;99.90;;;;;;5054882;28;20030;-65
2024/01/25 03:42:18;;;;;;;17.58;3.45;;;7.30;99.90;;;;;;5054726;28;20026;-65
2024/01/25 03:44:44;;;;;;;18.90;3.40;;;7.30;99.90;;;;;;5054378;28;20021;-65
2024/01/25 03:47:10;;;;;;;30.58;4.22;;;7.30;99.90;;;;;;5054625;28;20021;-64
2024/01/25 03:49:36;;;;;;;22.67;3.47;;;7.20;99.90;;;;;;5054658;28;20033;-65
2024/01/25 03:52:03;;;;;;;22.13;3.78;;;7.20;99.90;;;;;;5053424;28;20033;-65
2024/01/25 03:54:29;;;;;;;21.52;3.55;;;7.20;99.90;;;;;;5054462;28;20028;-65
2024/01/25 03:56:55;;;;;;;20.17;3.40;;;7.20;99.90;;;;;;5054291;28;20025;-64
2024/01/25 03:59:20;;;;;;;18.33;3.97;;;7.20;99.90;;;;;;5054397;28;20160;-65
2024/01/25 04:01:47;;;;;;;20.48;3.45;;;7.10;99.90;;;;;;5054267;28;20026;-64
2024/01/25 04:04:15;;;;;;;21.95;3.10;;;7.10;99.90;;;;;;5054223;28;20029;-64
2024/01/25 04:06:48;;;;;;;14.57;3.67;;;7.10;99.90;;;;;;5054351;28;20024;-65
2024/01/25 04:09:15;;;;;;;26.83;3.83;;;7.10;99.90;;;;;;5054067;28;20065;-65
2024/01/25 04:11:41;;;;;;;28.65;4.80;;;7.00;99.90;;;;;;5054268;28;20021;-65
2024/01/25 04:14:06;;;;;;;23.60;3.50;;;7.00;99.90;;;;;;5054062;28;20025;-65
2024/01/25 04:16:33;;;;;;;31.13;3.92;;;7.00;99.90;;;;;;5054055;28;20085;-65
2024/01/25 04:18:58;;;;;;;28.55;4.13;;;6.90;99.90;;;;;;5054118;28;20025;-65
2024/01/25 04:21:24;;;;;;;20.02;2.83;;;6.90;99.90;;;;;;5053943;28;20014;-64
2024/01/25 04:23:50;;;;;;;28.02;3.80;;;6.80;99.90;;;;;;5053988;28;20560;-65
2024/01/25 04:26:18;;;;;;;25.02;3.33;;;6.80;99.90;;;;;;5053965;28;20101;-65
2024/01/25 04:28:44;;;;;;;21.77;4.18;;;6.80;99.90;;;;;;5053800;28;20032;-66
2024/01/25 04:31:09;;;;;;;21.73;3.55;;;6.80;99.90;;;;;;5053939;28;20029;-65
2024/01/25 04:33:35;;;;;;;17.48;3.17;;;6.70;99.90;;;;;;5053713;28;20037;-65
2024/01/25 04:36:01;;;;;;;22.20;4.80;;;6.70;99.90;;;;;;5053733;28;20033;-65
2024/01/25 04:38:26;;;;;;;19.92;3.88;;;6.70;99.90;;;;;;5053685;28;20040;-65
2024/01/25 04:40:52;;;;;;;24.70;3.25;;;6.70;99.90;;;;;;5053738;28;20029;-64
2024/01/25 04:43:18;;;;;;;21.42;3.30;;;6.70;99.90;;;;;;5053654;28;20081;-65
2024/01/25 04:45:43;;;;;;;22.77;3.90;;;6.60;99.90;;;;;;5053564;28;20075;-65
2024/01/25 04:48:09;;;;;;;24.52;4.13;;;6.60;99.90;;;;;;5053596;28;20032;-64
2024/01/25 04:50:34;;;;;;;19.77;3.33;;;6.60;99.90;;;;;;5053451;28;20033;-65
2024/01/25 04:53:02;;;;;;;16.17;3.90;;;6.60;99.90;;;;;;5053420;28;20029;-65
2024/01/25 04:55:28;;;;;;;28.85;3.70;;;6.60;99.90;;;;;;5052717;28;20044;-65
2024/01/25 04:57:53;;;;;;;21.48;3.78;;;6.50;99.90;;;;;;5053201;28;20038;-65
2024/01/25 05:00:23;;;;;;;27.42;4.75;;;6.50;99.90;;;;;;5053187;28;20029;-65
2024/01/25 05:02:49;;;;;;;22.83;3.95;;;6.50;99.90;;;;;;5053086;28;20029;-64
2024/01/25 05:05:15;;;;;;;20.08;3.63;;;6.40;99.90;;;;;;5053342;28;20029;-64
2024/01/25 05:07:41;;;;;;;22.10;4.13;;;6.40;99.90;;;;;;5053136;28;20068;-64
2024/01/25 05:10:07;;;;;;;29.83;4.28;;;6.40;99.90;;;;;;5052962;28;20076;-65
2024/01/25 05:12:33;;;;;;;35.30;3.67;;;6.40;99.90;;;;;;5052906;28;20032;-64
2024/01/25 05:14:59;;;;;;;27.50;3.88;;;6.40;99.90;;;;;;5053016;28;20049;-65
2024/01/25 05:17:24;;;;;;;22.00;3.78;;;6.40;99.90;;;;;;5052834;28;20036;-65
2024/01/25 05:19:50;;;;;;;21.77;3.88;;;6.40;99.90;;;;;;5052809;28;20056;-64
2024/01/25 05:22:16;;;;;;;29.35;4.05;;;6.40;99.90;;;;;;5052833;28;20025;-64
2024/01/25 05:24:42;;;;;;;24.40;4.57;;;6.30;99.90;;;;;;5052995;28;20026;-65
2024/01/25 05:27:08;;;;;;;26.63;3.83;;;6.30;99.90;;;;;;5052767;28;20043;-64
2024/01/25 05:29:33;;;;;;;25.42;4.00;;;6.30;99.90;;;;;;5051840;28;20034;-64
2024/01/25 05:31:59;;;;;;;17.08;4.38;;;6.40;99.90;;;;;;5052692;28;20030;-64
2024/01/25 05:34:24;;;;;;;29.02;4.50;;;6.30;99.90;;;;;;5052460;28;20079;-65
2024/01/25 05:36:50;;;;;;;24.38;4.65;;;6.30;99.90;;;;;;5052551;28;20033;-65
2024/01/25 05:39:16;;;;;;;29.77;4.50;;;6.30;99.90;;;;;;5052453;28;20037;-65
2024/01/25 05:41:44;;;;;;;23.75;4.28;;;6.30;99.90;;;;;;5052513;28;20041;-65
2024/01/25 05:44:11;;;;;;;17.35;3.10;;;6.30;99.90;;;;;;5052536;28;20022;-64
2024/01/25 05:46:36;;;;;;;26.98;3.53;;;6.30;99.90;;;;;;5051460;28;20093;-65
2024/01/25 05:49:02;;;;;;;22.05;3.05;;;6.40;99.90;;;;;;5052468;28;20030;-65
2024/01/25 05:51:27;;;;;;;25.27;3.75;;;6.30;99.90;;;;;;5052445;28;20040;-65
2024/01/25 05:53:53;;;;;;;20.17;3.42;;;6.30;99.90;;;;;;5052441;28;20038;-65
2024/01/25 05:56:19;;;;;;;31.38;4.28;;;6.30;99.90;;;;;;5052132;28;20034;-64
2024/01/25 05:58:44;;;;;;;19.17;3.05;;;6.30;99.90;;;;;;5052284;28;20045;-65
2024/01/25 06:01:10;;;;;;;25.30;4.03;;;6.40;99.90;;;;;;5052259;28;20052;-65
2024/01/25 06:03:35;;;;;;;19.92;3.75;;;6.30;99.90;;;;;;5051095;28;20033;-64
2024/01/25 06:06:01;;;;;;;25.08;3.42;;;6.20;99.90;;;;;;5052230;28;20033;-64
2024/01/25 06:08:26;;;;;;;28.70;4.28;;;6.20;99.90;;;;;;5052245;28;20029;-64
2024/01/25 06:10:52;;;;;;;20.25;3.55;;;6.20;99.90;;;;;;5051951;28;20385;-65
2024/01/25 06:13:18;;;;;;;25.42;3.92;;;6.20;99.90;;;;;;5052182;28;20033;-64
2024/01/25 06:15:43;;;;;;;25.55;4.25;;;6.20;99.90;;;;;;5052067;28;20044;-65
2024/01/25 06:18:09;;;;;;;19.75;3.90;;;6.20;99.90;;;;;;5052110;28;20250;-64
2024/01/25 06:20:34;;;;;;;17.63;3.78;;;6.20;99.90;;;;;;5051982;28;20451;-65
2024/01/25 06:23:00;;;;;;;15.15;3.50;;;6.10;99.90;;;;;;5052026;28;20515;-66
2024/01/25 06:25:30;;;;;;;21.42;4.63;;;6.10;99.90;;;;;;5051881;28;20026;-66
2024/01/25 06:27:57;;;;;;;26.27;3.95;;;6.10;99.90;;;;;;5052150;28;20029;-65
2024/01/25 06:30:22;;;;;;;22.15;3.92;;;6.10;99.90;;;;;;5052048;28;20026;-66
2024/01/25 06:32:48;;;;;;;29.88;4.07;;;6.10;99.90;;;;;;5050788;28;20075;-65
2024/01/25 06:35:14;;;;;;;23.15;3.92;;;6.10;99.90;;;;;;5052019;28;20533;-65
2024/01/25 06:37:40;;;;;;;21.80;3.55;;;6.00;99.90;;;;;;5050793;28;20041;-65
2024/01/25 06:40:06;;;;;;;22.33;3.65;;;6.00;99.90;;;;;;5051870;28;20026;-66
2024/01/25 06:42:32;;;;;;;23.15;4.53;;;6.00;99.90;;;;;;5051916;28;20045;-66
2024/01/25 06:44:57;;;;;;;16.90;3.17;;;6.00;99.90;;;;;;5051881;28;20029;-65
2024/01/25 06:47:23;;;;;;;19.92;4.22;;;6.00;99.90;;;;;;5051854;28;20033;-66
2024/01/25 06:49:51;;;;;;;27.50;4.53;;;5.90;99.90;;;;;;5051856;28;20029;-66
2024/01/25 06:52:19;;;;;;;26.45;5.63;;;5.90;99.90;;;;;;5051812;28;20017;-67
2024/01/25 06:54:45;;;;;;;24.58;3.78;;;5.90;99.90;;;;;;5051822;28;20033;-66
2024/01/25 06:57:11;;;;;;;20.80;3.53;;;5.90;99.90;;;;;;5051694;28;20048;-66
2024/01/25 06:59:36;;;;;;;17.23;3.05;;;5.90;99.90;;;;;;5051811;28;20052;-66
2024/01/25 07:02:03;;;;;;;23.63;4.60;;;5.80;99.90;;;;;;5051752;28;20072;-66
2024/01/25 07:04:29;;;;;;;23.05;3.75;;;5.80;99.90;;;;;;5051535;28;20017;-65
2024/01/25 07:06:55;;;;;;;28.73;4.72;;;5.70;99.90;;;;;;5051620;28;20030;-66
2024/01/25 07:09:21;;;;;;;24.95;4.60;;;5.70;99.90;;;;;;5051357;28;20053;-66
2024/01/25 07:11:46;;;;;;;23.73;3.83;;;5.70;99.90;;;;;;5050570;28;20018;-66
2024/01/25 07:14:12;;;;;;;19.10;4.40;;;5.70;99.90;;;;;;5050674;28;20033;-66
2024/01/25 07:16:38;;;;;;;20.02;4.38;;;5.60;99.90;;;;;;5051472;28;20030;-66
2024/01/25 07:19:04;;;;;;;25.67;4.45;;;5.60;99.90;;;;;;5053292;28;20391;-66
2024/01/25 07:21:33;;;;;;;25.77;3.90;;;5.50;99.90;;;;;;5054967;28;20022;-66
2024/01/25 07:24:04;;;;;;;24.83;4.60;;;5.50;99.90;;;;;;5055231;28;20041;-66
2024/01/25 07:26:30;;;;;;;28.17;4.10;;;5.50;99.90;;;;;;5055135;28;20018;-66
2024/01/25 07:28:58;;;;;;;21.05;4.57;;;5.50;99.90;;;;;;5054974;28;20018;-66
2024/01/25 07:31:25;;;;;;;23.60;4.20;;;5.50;99.90;;;;;;5054988;28;20089;-66
2024/01/25 07:33:51;;;;;;;27.15;4.80;;;5.50;99.90;;;;;;5054817;28;20029;-66
2024/01/25 07:36:18;;;;;;;27.98;3.90;;;5.60;99.90;;;;;;5054803;28;20053;-66
2024/01/25 07:38:44;;;;;;;27.25;3.60;;;5.60;99.90;;;;;;5054847;28;20423;-66
2024/01/25 07:41:09;;;;;;;23.60;4.20;;;5.60;99.90;;;;;;5054824;28;20048;-66
2024/01/25 07:43:35;;;;;;;18.85;3.88;;;5.60;99.90;;;;;;5054805;28;20029;-66
2024/01/25 07:46:01;;;;;;;18.48;4.25;;;5.50;99.90;;;;;;5054826;28;20060;-66
2024/01/25 07:48:26;;;;;;;19.20;3.85;;;5.50;99.90;;;;;;5054733;28;20036;-66
2024/01/25 07:50:52;;;;;;;22.05;3.67;;;5.50;99.90;;;;;;5054545;28;20081;-66
2024/01/25 07:53:17;;;;;;;18.90;3.88;;;5.50;99.90;;;;;;5054632;28;20480;-66
2024/01/25 07:55:43;;;;;;;19.95;4.72;;;5.50;99.90;;;;;;5054431;28;20036;-66
2024/01/25 07:58:09;;;;;;;21.05;4.22;;;5.50;99.90;;;;;;5053553;28;20048;-66
2024/01/25 08:00:34;;;;;;;17.23;4.35;;;5.50;99.90;;;;;;5054497;28;20093;-66
2024/01/25 08:03:00;;;;;;;25.77;5.95;;;5.50;99.90;;;;;;5054345;28;20022;-66
2024/01/25 08:05:25;;;;;;;20.63;3.97;;;5.60;99.90;;;;;;5053237;28;20030;-65
2024/01/25 08:07:51;;;;;;;29.98;5.38;;;5.60;99.90;;;;;;5054263;28;20029;-66
2024/01/25 08:10:17;;;;;;;22.90;4.90;;;5.70;99.90;;;;;;5053928;28;20067;-66
2024/01/25 08:12:44;;;;;;;25.80;5.22;;;5.70;99.90;;;;;;5054370;28;20033;-65
2024/01/25 08:15:10;;;;;;;20.40;5.10;;;5.70;99.90;;;;;;5054255;28;20040;-66
2024/01/25 08:17:37;;;;;;;29.05;5.80;;;5.80;99.90;;;;;;5054107;28;20034;-65
2024/01/25 08:20:05;;;;;;;31.67;6.03;;;5.80;99.90;;;;;;5054146;28;20021;-65
2024/01/25 08:22:32;;;;;;;21.67;4.68;;;5.80;99.90;;;;;;5053099;28;20093;-66
2024/01/25 08:24:58;;;;;;;21.55;4.88;;;5.90;99.90;;;;;;5053940;28;20400;-66
2024/01/25 08:27:24;;;;;;;19.40;5.55;;;5.90;99.90;;;;;;5053501;28;20484;-66
2024/01/25 08:29:50;;;;;;;23.75;6.03;;;6.00;99.90;;;;;;5052652;28;20026;-65
2024/01/25 08:32:15;;;;;;;23.00;6.45;;;6.00;99.90;;;;;;5052570;28;20120;-65
2024/01/25 08:34:41;;;;;;;23.88;4.53;;;6.00;99.90;;;;;;5053187;28;20690;-65
2024/01/25 08:37:07;;;;;;;24.10;6.28;;;6.10;99.90;;;;;;5053396;28;20040;-65
2024/01/25 08:39:33;;;;;;;21.75;5.70;;;6.00;99.90;;;;;;5053305;28;20060;-65
2024/01/25 08:42:01;;;;;;;23.73;5.43;;;6.10;99.90;;;;;;5052386;28;20048;-66
2024/01/25 08:44:27;;;;;;;23.92;4.82;;;6.10;99.90;;;;;;5053382;28;20020;-66
2024/01/25 08:46:53;;;;;;;24.90;6.25;;;6.10;99.90;;;;;;5053319;28;20034;-66
2024/01/25 08:49:18;;;;;;;27.85;5.40;;;6.10;99.90;;;;;;5053092;28;20043;-66
2024/01/25 08:51:44;;;;;;;22.88;5.97;;;6.20;99.90;;;;;;5052859;28;20026;-65
2024/01/25 08:54:09;;;;;;;20.13;5.05;;;6.20;99.90;;;;;;5053206;28;20450;-65
2024/01/25 08:56:35;;;;;;;19.65;5.47;;;6.20;99.90;;;;;;5053182;28;20032;-67
2024/01/25 08:59:01;;;;;;;22.52;4.68;;;6.30;99.90;;;;;;5053243;28;20487;-65
2024/01/25 09:01:26;;;;;;;19.83;4.93;;;6.30;99.90;;;;;;5052795;28;20029;-65
2024/01/25 09:03:52;;;;;;;25.05;6.00;;;6.30;99.90;;;;;;5052792;28;20030;-66
2024/01/25 09:06:18;;;;;;;27.95;6.63;;;6.40;99.90;;;;;;5052998;28;20033;-65
2024/01/25 09:08:43;;;;;;;27.77;5.65;;;6.40;99.90;;;;;;5052790;28;20029;-65
2024/01/25 09:11:09;;;;;;;26.25;5.55;;;6.40;99.90;;;;;;5052781;28;20071;-65
2024/01/25 09:13:35;;;;;;;30.70;5.93;;;6.50;99.90;;;;;;5052533;28;20029;-65
2024/01/25 09:16:00;;;;;;;27.45;5.55;;;6.50;99.90;;;;;;5051791;28;20260;-66
2024/01/25 09:18:26;;;;;;;31.98;8.77;;;6.50;99.90;;;;;;5052688;28;20052;-65
2024/01/25 09:20:51;;;;;;;34.05;6.57;;;6.60;99.90;;;;;;5052712;28;20026;-65
2024/01/25 09:23:17;;;;;;;26.23;7.05;;;6.60;99.90;;;;;;5052759;28;20029;-65
2024/01/25 09:25:44;;;;;;;22.30;6.47;;;6.60;99.90;;;;;;5052792;28;20022;-66
2024/01/25 09:28:14;;;;;;;28.70;7.80;;;6.60;99.90;;;;;;5052915;28;20025;-65
2024/01/25 09:30:40;;;;;;;22.60;6.70;;;6.70;99.90;;;;;;5052666;28;20021;-65
2024/01/25 09:33:06;;;;;;;24.73;7.40;;;6.80;99.90;;;;;;5052563;28;20089;-66
2024/01/25 09:35:32;;;;;;;23.88;7.30;;;6.80;99.90;;;;;;5052643;28;20018;-66
2024/01/25 09:37:58;;;;;;;28.85;7.20;;;6.90;99.90;;;;;;5051404;28;20067;-66
2024/01/25 09:40:23;;;;;;;23.20;6.70;;;7.00;99.90;;;;;;5052593;28;20032;-65
2024/01/25 09:42:52;;;;;;;34.40;7.38;;;7.10;99.90;;;;;;5052324;28;20028;-65
2024/01/25 09:45:18;;;;;;;28.88;6.65;;;7.20;99.90;;;;;;5052519;28;20022;-66
2024/01/25 09:47:45;;;;;;;23.10;6.90;;;7.30;99.90;;;;;;5052489;28;20032;-65
2024/01/25 09:50:11;;;;;;;27.17;7.13;;;7.30;99.90;;;;;;5052607;28;20026;-66
2024/01/25 09:52:38;;;;;;;27.65;7.72;;;7.40;99.90;;;;;;5052497;28;20022;-66
2024/01/25 09:55:10;;;;;;;33.38;7.63;;;7.40;99.90;;;;;;5052384;28;20041;-66
2024/01/25 09:57:37;;;;;;;24.60;7.00;;;7.50;99.90;;;;;;5052282;28;20128;-65
2024/01/25 10:00:03;;;;;;;25.33;7.50;;;7.50;99.90;;;;;;5052283;28;20024;-66
2024/01/25 10:02:29;;;;;;;34.65;8.20;;;7.50;99.90;;;;;;5051230;28;20086;-66
2024/01/25 10:04:54;;;;;;;33.78;8.52;;;7.50;99.90;;;;;;5051992;28;20029;-65
2024/01/25 10:07:43;;;;;;;26.58;8.60;;;7.60;99.90;;;;;;5052124;28;20041;-66
2024/01/25 10:10:10;;;;;;;31.35;8.50;;;7.60;99.90;;;;;;5051871;28;20041;-65
2024/01/25 10:12:37;;;;;;;24.30;7.57;;;7.60;99.90;;;;;;5052109;28;20030;-66
2024/01/25 10:15:04;;;;;;;25.42;7.53;;;7.60;99.90;;;;;;5052182;28;20021;-65
2024/01/25 10:17:30;;;;;;;28.25;8.32;;;7.70;99.90;;;;;;5052138;28;20055;-65
2024/01/25 10:19:57;;;;;;;28.80;7.97;;;7.70;99.90;;;;;;5052034;28;20085;-66
2024/01/25 10:22:22;;;;;;;27.45;8.20;;;7.70;99.90;;;;;;5052081;28;20025;-65
2024/01/25 10:24:53;;;;;;;24.42;8.10;;;7.80;99.90;;;;;;5051989;28;20040;-66
2024/01/25 10:27:19;;;;;;;34.70;7.82;;;7.80;99.90;;;;;;5051997;28;20072;-66
2024/01/25 10:29:44;;;;;;;34.58;7.85;;;7.80;99.90;;;;;;5051959;28;20026;-66
2024/01/25 10:32:10;;;;;;;28.92;8.05;;;7.90;99.90;;;;;;5051918;28;20032;-66
2024/01/25 10:34:37;;;;;;;35.78;9.02;;;7.90;99.90;;;;;;5051787;28;20049;-67
2024/01/25 10:37:07;;;;;;;32.05;8.30;;;7.90;99.90;;;;;;5051797;28;20032;-66
2024/01/25 10:39:33;;;;;;;33.28;8.63;;;7.90;99.90;;;;;;5051919;28;20033;-66
2024/01/25 10:41:59;;;;;;;32.03;8.60;;;8.00;99.90;;;;;;5052054;28;20041;-66
2024/01/25 10:44:26;;;;;;;33.72;8.65;;;8.00;99.90;;;;;;5051959;28;20028;-67
2024/01/25 10:46:54;;;;;;;25.38;8.68;;;8.00;99.90;;;;;;5051895;28;20034;-66
2024/01/25 10:49:20;;;;;;;29.38;8.30;;;8.10;99.90;;;;;;5051845;28;20089;-66
2024/01/25 10:51:47;;;;;;;29.60;8.90;;;8.10;99.90;;;;;;5051797;28;20040;-66
2024/01/25 10:54:14;;;;;;;25.27;8.45;;;8.10;99.90;;;;;;5053930;28;20048;-66
2024/01/25 10:56:43;;;;;;;34.10;8.70;;;8.20;99.90;;;;;;5055673;28;20052;-67
2024/01/25 10:59:10;;;;;;;29.90;8.35;;;8.20;99.90;;;;;;5055604;28;20029;-67
2024/01/25 11:01:36;;;;;;;31.85;8.00;;;8.30;99.90;;;;;;5055544;28;20043;-67
2024/01/25 11:04:02;;;;;;;34.03;9.07;;;8.20;99.90;;;;;;5055388;28;20024;-66
2024/01/25 11:06:28;;;;;;;31.70;8.70;;;8.30;99.90;;;;;;5055482;28;20384;-67
2024/01/25 11:09:08;;;;;;;31.13;9.73;;;8.30;99.90;;;;;;5055354;28;20018;-67
2024/01/25 11:11:36;;;;;;;29.92;9.50;;;8.30;99.90;;;;;;5055128;28;20056;-67
2024/01/25 11:14:01;;;;;;;34.72;9.63;;;8.30;99.90;;;;;;5055443;28;20021;-66
2024/01/25 11:16:29;;;;;;;30.00;9.57;;;8.30;99.90;;;;;;5055254;28;20030;-66
2024/01/25 11:18:59;;;;;;;30.13;9.63;;;8.30;99.90;;;;;;5055259;28;20074;-66
2024/01/25 11:21:43;;;;;;;28.00;8.77;;;8.30;99.90;;;;;;5055116;28;20092;-67
2024/01/25 11:24:17;;;;;;;32.20;10.45;;;8.40;99.90;;;;;;5055232;28;20025;-67
2024/01/25 11:26:44;;;;;;;33.33;10.13;;;8.50;99.90;;;;;;5055126;28;20025;-66
2024/01/25 11:29:10;;;;;;;29.60;10.10;;;8.50;99.90;;;;;;5055090;28;20083;-66
2024/01/25 11:31:36;;;;;;;32.58;10.00;;;8.50;99.90;;;;;;5054847;28;20033;-67
2024/01/25 11:34:01;;;;;;;39.53;10.02;;;8.50;99.90;;;;;;5054780;28;20059;-67
2024/01/25 11:36:28;;;;;;;32.92;9.48;;;8.50;99.90;;;;;;5054836;28;20040;-67
2024/01/25 11:38:54;;;;;;;30.45;8.90;;;8.50;99.90;;;;;;5054883;28;20040;-67
2024/01/25 11:41:20;;;;;;;33.40;9.65;;;8.60;99.90;;;;;;5054932;28;20037;-66
2024/01/25 11:43:49;;;;;;;24.67;8.75;;;8.60;99.90;;;;;;5054858;28;20025;-67
2024/01/25 11:46:14;;;;;;;32.65;8.70;;;8.60;99.90;;;;;;5054734;28;20033;-66
2024/01/25 11:48:41;;;;;;;29.83;10.85;;;8.70;99.90;;;;;;5054759;28;20097;-66
2024/01/25 11:51:10;;;;;;;26.13;9.63;;;8.70;99.90;;;;;;5054656;28;20025;-66
2024/01/25 11:53:36;;;;;;;30.90;9.13;;;8.70;99.90;;;;;;5054630;28;20060;-66
2024/01/25 11:56:02;;;;;;;35.72;10.25;;;8.80;99.90;;;;;;5054529;28;20065;-66
2024/01/25 11:58:28;;;;;;;34.30;9.35;;;8.80;99.90;;;;;;5054638;28;20448;-66
2024/01/25 12:00:54;;;;;;;32.30;10.05;;;8.80;99.90;;;;;;5054468;28;20085;-67
2024/01/25 12:03:20;;;;;;;26.92;8.13;;;8.80;99.90;;;;;;5054246;28;20026;-67
2024/01/25 12:05:46;;;;;;;28.23;8.75;;;8.80;99.90;;;;;;5054144;28;20049;-67
2024/01/25 12:08:13;;;;;;;33.28;9.50;;;8.90;99.90;;;;;;5054176;28;20062;-67
2024/01/25 12:10:39;;;;;;;30.90;9.30;;;8.90;99.90;;;;;;5054026;28;20052;-66
2024/01/25 12:13:09;;;;;;;35.30;9.52;;;8.90;99.90;;;;;;5054153;28;20025;-66
2024/01/25 12:15:35;;;;;;;30.85;9.60;;;9.00;99.90;;;;;;5054200;28;20018;-67
2024/01/25 12:18:01;;;;;;;29.10;9.05;;;9.00;99.90;;;;;;5053070;28;20048;-66
2024/01/25 12:20:28;;;;;;;33.22;9.35;;;9.00;99.90;;;;;;5054057;28;20033;-66
2024/01/25 12:22:54;;;;;;;23.95;8.65;;;9.00;99.90;;;;;;5054098;28;20030;-67
2024/01/25 12:25:19;;;;;;;35.22;10.60;;;9.00;99.90;;;;;;5053038;28;20033;-67
2024/01/25 12:27:48;;;;;;;33.55;10.02;;;9.00;99.90;;;;;;5053593;28;20039;-66
2024/01/25 12:30:14;;;;;;;32.63;10.30;;;9.10;99.90;;;;;;5053709;28;20033;-67
2024/01/25 12:32:40;;;;;;;38.90;10.57;;;9.00;99.90;;;;;;5053287;28;20028;-65
2024/01/25 12:35:06;;;;;;;37.28;11.20;;;9.00;99.90;;;;;;5052400;28;20585;-65
2024/01/25 12:37:32;;;;;;;40.05;13.30;;;9.00;99.90;;;;;;5053191;28;20483;-65
2024/01/25 12:39:57;;;;;;;42.58;12.50;;;9.00;99.90;;;;;;5053320;28;20048;-66